createdAt,value
2023-05-26T00:01:04.705Z,60.90
2023-05-26T00:03:32.730Z,61.10
2023-05-26T00:06:00.019Z,61.10
2023-05-26T00:08:29.646Z,61.10
2023-05-26T00:10:56.865Z,61.30
2023-05-26T00:13:24.078Z,61.30
2023-05-26T00:15:51.381Z,61.40
2023-05-26T00:18:20.849Z,61.80
2023-05-26T00:20:48.200Z,61.60
2023-05-26T00:23:15.538Z,61.70
2023-05-26T00:25:42.773Z,61.70
2023-05-26T00:28:10.081Z,61.80
2023-05-26T00:30:37.448Z,61.60
2023-05-26T00:33:05.378Z,61.50
2023-05-26T00:35:32.726Z,61.60
2023-05-26T00:38:01.158Z,61.50
2023-05-26T00:40:28.820Z,61.60
2023-05-26T00:42:56.188Z,61.80
2023-05-26T00:45:23.434Z,61.70
2023-05-26T00:47:50.822Z,61.90
2023-05-26T00:50:18.336Z,61.80
2023-05-26T00:52:46.018Z,61.80
2023-05-26T00:55:13.464Z,62.10
2023-05-26T00:57:41.480Z,62.20
2023-05-26T01:00:10.129Z,62.20
2023-05-26T01:02:38.843Z,62.00
2023-05-26T01:05:07.925Z,62.20
2023-05-26T01:07:35.440Z,62.00
2023-05-26T01:10:03.243Z,62.00
2023-05-26T01:12:39.483Z,62.00
2023-05-26T01:15:16.662Z,62.00
2023-05-26T01:18:18.221Z,62.00
2023-05-26T01:20:57.584Z,62.30
2023-05-26T01:23:34.257Z,62.20
2023-05-26T01:26:32.964Z,62.20
2023-05-26T01:29:08.077Z,62.40
2023-05-26T01:31:38.793Z,62.60
2023-05-26T01:34:07.408Z,62.50
2023-05-26T01:36:36.680Z,62.20
2023-05-26T01:39:06.097Z,62.20
2023-05-26T01:41:58.997Z,62.10
2023-05-26T01:44:33.557Z,62.10
2023-05-26T01:47:02.732Z,60.90
2023-05-26T01:49:30.673Z,61.60
2023-05-26T01:52:00.521Z,61.40
2023-05-26T01:54:34.218Z,61.50
2023-05-26T01:57:03.827Z,61.50
2023-05-26T01:59:31.789Z,61.60
2023-05-26T02:01:59.068Z,61.40
2023-05-26T02:04:26.403Z,61.40
2023-05-26T02:06:55.584Z,61.40
2023-05-26T02:09:22.878Z,61.60
2023-05-26T02:11:50.234Z,61.80
2023-05-26T02:14:17.520Z,61.70
2023-05-26T02:16:45.131Z,61.70
2023-05-26T02:19:14.100Z,61.40
2023-05-26T02:21:41.893Z,61.60
2023-05-26T02:24:09.322Z,61.50
2023-05-26T02:26:38.448Z,61.40
2023-05-26T02:29:07.290Z,61.20
2023-05-26T02:31:41.960Z,61.00
2023-05-26T02:34:11.680Z,60.90
2023-05-26T02:36:39.086Z,61.00
2023-05-26T02:39:06.345Z,60.90
2023-05-26T02:41:33.534Z,60.80
2023-05-26T02:44:01.010Z,60.80
2023-05-26T02:46:30.882Z,60.80
2023-05-26T02:49:01.492Z,61.00
2023-05-26T02:51:29.129Z,61.00
2023-05-26T02:53:56.353Z,60.90
2023-05-26T02:56:23.621Z,61.10
2023-05-26T02:58:50.883Z,61.10
2023-05-26T03:01:18.368Z,61.20
2023-05-26T03:03:45.705Z,61.20
2023-05-26T03:06:12.961Z,61.20
2023-05-26T03:08:40.570Z,61.40
2023-05-26T03:11:10.148Z,61.60
2023-05-26T03:13:40.359Z,61.60
2023-05-26T03:16:08.124Z,61.50
2023-05-26T03:18:35.826Z,61.50
2023-05-26T03:21:05.359Z,61.60
2023-05-26T03:23:32.827Z,61.60
2023-05-26T03:26:01.639Z,61.50
2023-05-26T03:28:32.176Z,61.40
2023-05-26T03:30:59.993Z,61.20
2023-05-26T03:33:30.174Z,61.20
2023-05-26T03:35:59.973Z,61.20
2023-05-26T03:38:28.195Z,61.40
2023-05-26T03:40:57.449Z,61.30
2023-05-26T03:43:24.861Z,61.20
2023-05-26T03:45:52.211Z,61.00
2023-05-26T03:48:19.477Z,61.00
2023-05-26T03:50:48.819Z,60.80
2023-05-26T03:53:16.187Z,60.80
2023-05-26T03:55:44.375Z,60.50
2023-05-26T03:58:13.319Z,60.40
2023-05-26T04:00:40.689Z,60.50
2023-05-26T04:03:07.966Z,60.50
2023-05-26T04:05:36.287Z,60.50
2023-05-26T04:08:03.537Z,60.70
2023-05-26T04:10:30.821Z,60.70
2023-05-26T04:12:58.917Z,60.70
2023-05-26T04:15:26.194Z,60.60
2023-05-26T04:17:53.450Z,60.60
2023-05-26T04:20:20.840Z,60.50
2023-05-26T04:22:48.261Z,60.50
2023-05-26T04:25:17.886Z,60.50
2023-05-26T04:27:58.498Z,60.20
2023-05-26T04:30:43.692Z,60.10
2023-05-26T04:33:16.759Z,60.20
2023-05-26T04:35:57.473Z,60.10
2023-05-26T04:38:24.855Z,59.90
2023-05-26T04:40:52.184Z,59.80
2023-05-26T04:43:21.820Z,59.90
2023-05-26T04:45:49.392Z,59.80
2023-05-26T04:48:17.049Z,59.70
2023-05-26T04:50:44.395Z,59.60
2023-05-26T04:53:11.726Z,59.70
2023-05-26T04:55:41.531Z,59.50
2023-05-26T04:58:11.959Z,59.40
2023-05-26T05:00:39.278Z,59.20
2023-05-26T05:03:25.291Z,59.20
2023-05-26T05:06:02.505Z,58.90
2023-05-26T05:08:30.986Z,58.90
2023-05-26T05:10:58.520Z,58.90
2023-05-26T05:13:26.446Z,58.70
2023-05-26T05:15:54.227Z,58.60
2023-05-26T05:18:21.645Z,58.60
2023-05-26T05:20:49.284Z,58.80
2023-05-26T05:23:16.879Z,58.00
2023-05-26T05:25:44.309Z,57.70
2023-05-26T05:28:11.678Z,57.60
2023-05-26T05:30:46.266Z,57.70
2023-05-26T05:33:14.888Z,57.40
2023-05-26T05:35:42.169Z,57.40
2023-05-26T05:38:09.512Z,57.80
2023-05-26T05:40:36.860Z,57.50
2023-05-26T05:43:04.697Z,57.50
2023-05-26T05:45:32.275Z,57.00
2023-05-26T05:48:08.157Z,56.50
2023-05-26T05:50:45.936Z,56.30
2023-05-26T05:53:13.424Z,56.40
2023-05-26T05:55:40.772Z,55.30
2023-05-26T05:58:08.846Z,55.30
2023-05-26T06:00:36.077Z,54.70
2023-05-26T06:03:03.773Z,54.70
2023-05-26T06:05:33.515Z,55.00
2023-05-26T06:08:00.820Z,54.50
2023-05-26T06:10:29.625Z,53.80
2023-05-26T06:12:57.165Z,53.70
2023-05-26T06:15:24.783Z,53.60
2023-05-26T06:17:52.174Z,53.10
2023-05-26T06:20:19.566Z,52.50
2023-05-26T06:22:47.415Z,52.20
2023-05-26T06:25:14.878Z,51.30
2023-05-26T06:27:42.331Z,51.30
2023-05-26T06:30:11.865Z,51.30
2023-05-26T06:32:39.768Z,51.10
2023-05-26T06:35:07.346Z,50.70
2023-05-26T06:37:34.808Z,50.60
2023-05-26T06:40:02.280Z,50.40
2023-05-26T06:42:36.431Z,50.20
2023-05-26T06:45:04.703Z,49.90
2023-05-26T06:47:32.282Z,49.80
2023-05-26T06:50:13.319Z,49.30
2023-05-26T06:52:40.570Z,49.50
2023-05-26T06:55:08.275Z,49.30
2023-05-26T06:57:35.610Z,49.60
2023-05-26T07:00:04.248Z,49.70
2023-05-26T07:02:31.616Z,48.50
2023-05-26T07:05:18.943Z,48.10
2023-05-26T07:07:47.915Z,47.90
2023-05-26T07:10:16.386Z,47.60
2023-05-26T07:12:43.776Z,47.20
2023-05-26T07:15:25.529Z,46.80
2023-05-26T07:17:52.896Z,46.70
2023-05-26T07:20:20.402Z,45.10
2023-05-26T07:22:47.729Z,45.00
2023-05-26T07:25:21.002Z,45.60
2023-05-26T07:27:50.107Z,45.30
2023-05-26T07:30:19.294Z,45.50
2023-05-26T07:32:59.135Z,45.10
2023-05-26T07:35:26.495Z,45.00
2023-05-26T07:37:53.846Z,44.80
2023-05-26T07:40:21.165Z,44.70
2023-05-26T07:42:48.451Z,44.80
2023-05-26T07:45:16.723Z,44.90
2023-05-26T07:47:44.844Z,45.00
2023-05-26T07:50:13.841Z,44.30
2023-05-26T07:52:42.222Z,44.30
2023-05-26T07:55:09.555Z,44.10
2023-05-26T07:57:37.308Z,44.10
2023-05-26T08:00:06.116Z,44.90
2023-05-26T08:02:40.716Z,43.80
2023-05-26T08:05:08.425Z,43.70
2023-05-26T08:07:35.673Z,43.00
2023-05-26T08:10:04.295Z,42.80
2023-05-26T08:12:31.537Z,42.30
2023-05-26T08:14:58.769Z,42.20
2023-05-26T08:17:26.228Z,41.20
2023-05-26T08:19:53.538Z,40.80
2023-05-26T08:22:20.821Z,40.10
2023-05-26T08:24:48.062Z,39.80
2023-05-26T08:27:15.484Z,39.60
2023-05-26T08:29:42.750Z,39.80
2023-05-26T08:32:09.960Z,39.20
2023-05-26T08:34:37.322Z,38.80
2023-05-26T08:37:04.669Z,38.00
2023-05-26T08:39:31.934Z,37.90
2023-05-26T08:42:03.875Z,38.00
2023-05-26T08:44:31.671Z,38.00
2023-05-26T08:47:01.340Z,38.10
2023-05-26T08:49:32.198Z,37.40
2023-05-26T08:52:08.545Z,36.80
2023-05-26T08:54:38.956Z,35.90
2023-05-26T08:57:07.421Z,35.90
2023-05-26T08:59:34.963Z,36.20
2023-05-26T09:02:03.418Z,35.70
2023-05-26T09:04:31.679Z,35.00
2023-05-26T09:07:22.765Z,34.60
2023-05-26T09:09:47.130Z,33.50
2023-05-26T09:12:14.519Z,32.70
2023-05-26T09:14:42.897Z,31.80
2023-05-26T09:17:14.417Z,30.70
2023-05-26T09:19:41.929Z,30.20
2023-05-26T09:22:11.389Z,28.60
2023-05-26T09:24:46.841Z,26.30
2023-05-26T09:27:22.790Z,23.40
2023-05-26T09:29:56.010Z,21.80
2023-05-26T09:32:30.818Z,20.80
2023-05-26T09:35:01.120Z,19.70
2023-05-26T09:37:29.971Z,19.30
2023-05-26T09:40:11.371Z,19.20
2023-05-26T09:42:46.422Z,19.40
2023-05-26T09:45:13.618Z,17.80
2023-05-26T09:47:40.890Z,17.80
2023-05-26T09:50:08.813Z,17.60
2023-05-26T09:52:37.352Z,17.50
2023-05-26T09:55:05.258Z,18.40
2023-05-26T09:57:36.595Z,19.30
2023-05-26T10:00:08.900Z,20.80
2023-05-26T10:02:37.387Z,22.10
2023-05-26T10:05:06.752Z,22.80
2023-05-26T10:07:34.472Z,23.30
2023-05-26T10:10:05.141Z,23.80
2023-05-26T10:12:36.634Z,24.20
2023-05-26T10:15:04.896Z,24.00
2023-05-26T10:17:32.291Z,23.40
2023-05-26T10:20:01.005Z,21.70
2023-05-26T10:22:48.121Z,19.80
2023-05-26T10:25:36.916Z,18.50
2023-05-26T10:28:33.774Z,17.40
2023-05-26T10:31:02.881Z,16.60
2023-05-26T10:33:44.937Z,15.90
2023-05-26T10:36:17.425Z,15.90
2023-05-26T10:38:49.193Z,16.10
2023-05-26T10:41:51.981Z,15.40
2023-05-26T10:44:42.012Z,14.70
2023-05-26T10:47:14.659Z,14.60
2023-05-26T10:50:01.562Z,14.10
2023-05-26T10:52:51.492Z,13.90
2023-05-26T10:55:32.903Z,13.80
2023-05-26T10:58:28.103Z,13.30
2023-05-26T11:01:03.738Z,13.10
2023-05-26T11:03:54.159Z,12.70
2023-05-26T11:06:55.364Z,12.30
2023-05-26T11:09:24.040Z,12.50
2023-05-26T11:11:59.162Z,11.90
2023-05-26T11:14:28.967Z,12.00
2023-05-26T11:16:58.264Z,11.70
2023-05-26T11:19:39.536Z,11.90
2023-05-26T11:22:09.998Z,11.90
2023-05-26T11:24:37.964Z,11.90
2023-05-26T11:27:06.818Z,11.50
2023-05-26T11:29:34.553Z,11.50
2023-05-26T11:32:01.955Z,11.60
2023-05-26T11:34:29.325Z,11.90
2023-05-26T11:36:59.320Z,11.30
2023-05-26T11:39:32.853Z,11.20
2023-05-26T11:42:12.312Z,11.30
2023-05-26T11:44:39.940Z,11.50
2023-05-26T11:47:08.105Z,11.60
2023-05-26T11:49:35.467Z,11.40
2023-05-26T11:52:02.995Z,11.20
2023-05-26T11:54:30.301Z,11.20
2023-05-26T11:56:57.618Z,11.10
2023-05-26T11:59:24.995Z,11.50
2023-05-26T12:01:52.364Z,11.50
2023-05-26T12:04:29.562Z,11.20
2023-05-26T12:06:57.085Z,11.10
2023-05-26T12:09:24.362Z,11.00
2023-05-26T12:11:53.416Z,11.10
2023-05-26T12:14:23.516Z,11.40
2023-05-26T12:16:53.757Z,11.30
2023-05-26T12:19:25.090Z,11.20
2023-05-26T12:21:57.224Z,11.20
2023-05-26T12:24:31.872Z,11.30
2023-05-26T12:27:09.418Z,11.20
2023-05-26T12:29:41.887Z,11.30
2023-05-26T12:32:11.551Z,11.40
2023-05-26T12:34:40.402Z,11.30
2023-05-26T12:37:07.811Z,11.20
2023-05-26T12:39:35.165Z,11.20
2023-05-26T12:42:03.172Z,11.40
2023-05-26T12:44:30.602Z,11.60
2023-05-26T12:46:57.922Z,11.60
2023-05-26T12:49:25.164Z,11.70
2023-05-26T12:51:52.456Z,11.80
2023-05-26T12:54:19.741Z,11.90
2023-05-26T12:56:47.074Z,12.20
2023-05-26T12:59:20.877Z,12.10
2023-05-26T13:01:49.261Z,11.90
2023-05-26T13:04:18.072Z,11.90
2023-05-26T13:06:49.714Z,11.90
2023-05-26T13:09:19.729Z,12.20
2023-05-26T13:11:47.593Z,12.30
2023-05-26T13:14:15.880Z,12.30
2023-05-26T13:16:43.187Z,12.20
2023-05-26T13:19:11.167Z,12.40
2023-05-26T13:21:39.299Z,12.50
2023-05-26T13:24:06.642Z,12.70
2023-05-26T13:26:33.923Z,13.00
2023-05-26T13:29:01.921Z,13.20
2023-05-26T13:31:29.239Z,13.30
2023-05-26T13:33:56.485Z,13.40
2023-05-26T13:36:24.477Z,13.60
2023-05-26T13:38:51.736Z,13.80
2023-05-26T13:41:20.478Z,13.90
2023-05-26T13:43:47.934Z,14.10
2023-05-26T13:46:15.341Z,14.10
2023-05-26T13:48:42.672Z,14.40
2023-05-26T13:51:09.970Z,14.90
2023-05-26T13:53:38.546Z,14.90
2023-05-26T13:56:18.127Z,14.70
2023-05-26T13:58:54.194Z,14.70
2023-05-26T14:01:36.006Z,14.70
2023-05-26T14:04:06.925Z,15.10
2023-05-26T14:06:37.628Z,15.30
2023-05-26T14:09:15.841Z,15.50
2023-05-26T14:11:43.777Z,15.50
2023-05-26T14:14:11.163Z,15.60
2023-05-26T14:16:38.534Z,16.00
2023-05-26T14:19:12.891Z,16.10
2023-05-26T14:22:13.965Z,16.20
2023-05-26T14:24:33.142Z,16.60
2023-05-26T14:27:00.721Z,16.00
2023-05-26T14:29:28.481Z,16.80
2023-05-26T14:31:55.996Z,16.50
2023-05-26T14:34:23.368Z,16.40
2023-05-26T14:36:50.959Z,16.60
2023-05-26T14:39:18.314Z,16.50
2023-05-26T14:41:45.630Z,16.50
2023-05-26T14:44:13.125Z,16.30
2023-05-26T14:46:40.654Z,16.50
2023-05-26T14:49:09.137Z,17.00
2023-05-26T14:51:37.950Z,17.10
2023-05-26T14:54:06.820Z,17.10
2023-05-26T14:56:34.265Z,17.00
2023-05-26T14:59:01.674Z,17.30
2023-05-26T15:01:29.060Z,17.20
2023-05-26T15:04:13.614Z,17.80
2023-05-26T15:06:43.552Z,17.90
2023-05-26T15:09:10.985Z,18.00
2023-05-26T15:11:38.303Z,18.20
2023-05-26T15:14:06.889Z,18.30
2023-05-26T15:16:34.924Z,18.40
2023-05-26T15:19:02.879Z,18.70
2023-05-26T15:24:01.709Z,18.70
2023-05-26T15:26:29.145Z,19.00
2023-05-26T15:28:56.573Z,19.00
2023-05-26T15:31:23.830Z,19.30
2023-05-26T15:33:51.434Z,19.40
2023-05-26T15:36:26.521Z,19.30
2023-05-26T15:38:54.597Z,19.10
2023-05-26T15:41:24.843Z,19.20
2023-05-26T15:43:53.596Z,19.00
2023-05-26T15:46:20.925Z,19.10
2023-05-26T15:48:48.208Z,19.50
2023-05-26T15:51:15.460Z,19.80
2023-05-26T15:53:42.841Z,20.00
2023-05-26T15:56:10.066Z,20.20
2023-05-26T15:58:37.432Z,20.30
2023-05-26T16:01:05.242Z,20.30
2023-05-26T16:03:32.852Z,20.20
2023-05-26T16:06:00.219Z,20.40
2023-05-26T16:08:27.712Z,20.60
2023-05-26T16:10:55.005Z,20.90
2023-05-26T16:13:22.252Z,21.00
2023-05-26T16:15:49.518Z,21.20
2023-05-26T16:18:16.811Z,21.40
2023-05-26T16:20:44.464Z,21.80
2023-05-26T16:23:11.893Z,22.00
2023-05-26T16:25:39.376Z,22.10
2023-05-26T16:28:06.734Z,22.00
2023-05-26T16:30:34.118Z,22.10
2023-05-26T16:33:01.514Z,22.40
2023-05-26T16:35:46.514Z,22.60
2023-05-26T16:38:14.075Z,22.70
2023-05-26T16:40:41.422Z,22.70
2023-05-26T16:43:11.549Z,22.70
2023-05-26T16:45:38.809Z,23.00
2023-05-26T16:48:06.127Z,23.40
2023-05-26T16:50:33.395Z,23.40
2023-05-26T16:53:00.731Z,23.30
2023-05-26T16:55:27.922Z,23.60
2023-05-26T16:57:55.449Z,23.90
2023-05-26T17:00:22.736Z,24.00
2023-05-26T17:02:50.116Z,24.10
2023-05-26T17:05:17.578Z,24.20
2023-05-26T17:07:44.864Z,24.60
2023-05-26T17:10:12.373Z,24.90
2023-05-26T17:12:39.659Z,24.90
2023-05-26T17:15:07.765Z,25.30
2023-05-26T17:17:35.051Z,25.70
2023-05-26T17:20:03.200Z,26.10
2023-05-26T17:22:30.598Z,26.20
2023-05-26T17:24:57.820Z,26.10
2023-05-26T17:27:25.123Z,26.10
2023-05-26T17:29:52.330Z,26.00
2023-05-26T17:32:19.641Z,26.10
2023-05-26T17:34:47.691Z,26.10
2023-05-26T17:37:15.064Z,26.50
2023-05-26T17:39:43.350Z,27.00
2023-05-26T17:42:11.084Z,27.30
2023-05-26T17:44:38.456Z,27.50
2023-05-26T17:47:06.143Z,27.60
2023-05-26T17:49:33.679Z,27.80
2023-05-26T17:52:01.313Z,28.10
2023-05-26T17:54:29.945Z,28.10
2023-05-26T17:56:57.859Z,28.10
2023-05-26T17:59:28.736Z,28.20
2023-05-26T18:01:56.198Z,28.30
2023-05-26T18:04:23.534Z,28.60
2023-05-26T18:06:50.843Z,29.00
2023-05-26T18:09:18.123Z,29.30
2023-05-26T18:11:45.560Z,29.30
2023-05-26T18:14:13.345Z,29.50
2023-05-26T18:16:41.005Z,30.00
2023-05-26T18:19:08.851Z,30.90
2023-05-26T18:21:39.636Z,31.60
2023-05-26T18:24:07.430Z,32.40
2023-05-26T18:26:34.822Z,33.10
2023-05-26T18:29:03.383Z,33.60
2023-05-26T18:31:30.730Z,33.90
2023-05-26T18:34:02.167Z,34.20
2023-05-26T18:36:33.902Z,34.50
2023-05-26T18:39:01.139Z,34.70
2023-05-26T18:41:28.414Z,35.10
2023-05-26T18:43:55.695Z,35.80
2023-05-26T18:46:23.006Z,36.20
2023-05-26T18:48:50.277Z,36.70
2023-05-26T18:51:17.795Z,36.90
2023-05-26T18:53:45.067Z,37.50
2023-05-26T18:56:14.485Z,37.60
2023-05-26T18:58:41.763Z,37.50
2023-05-26T19:01:09.035Z,37.90
2023-05-26T19:03:36.522Z,38.10
2023-05-26T19:06:04.065Z,38.60
2023-05-26T19:08:31.353Z,39.30
2023-05-26T19:10:58.887Z,39.30
2023-05-26T19:13:26.435Z,40.20
2023-05-26T19:15:53.795Z,40.20
2023-05-26T19:18:22.151Z,40.50
2023-05-26T19:20:49.728Z,40.80
2023-05-26T19:23:17.096Z,41.20
2023-05-26T19:25:44.404Z,41.60
2023-05-26T19:28:17.921Z,41.60
2023-05-26T19:30:46.291Z,42.50
2023-05-26T19:33:13.813Z,42.60
2023-05-26T19:35:41.081Z,43.50
2023-05-26T19:38:08.630Z,43.80
2023-05-26T19:40:37.979Z,44.10
2023-05-26T19:43:05.403Z,43.90
2023-05-26T19:45:32.668Z,44.50
2023-05-26T19:47:59.930Z,45.10
2023-05-26T19:50:27.561Z,45.50
2023-05-26T19:52:55.639Z,46.70
2023-05-26T19:55:23.108Z,46.80
2023-05-26T19:57:50.503Z,46.70
2023-05-26T20:00:18.178Z,47.40
2023-05-26T20:02:46.025Z,47.70
2023-05-26T20:05:13.665Z,47.70
2023-05-26T20:07:40.941Z,48.30
2023-05-26T20:10:08.519Z,48.60
2023-05-26T20:12:35.780Z,49.10
2023-05-26T20:15:03.182Z,49.80
2023-05-26T20:17:31.169Z,50.00
2023-05-26T20:20:12.560Z,49.90
2023-05-26T20:22:41.883Z,49.90
2023-05-26T20:25:09.500Z,50.30
2023-05-26T20:27:38.927Z,50.80
2023-05-26T20:30:08.809Z,51.40
2023-05-26T20:32:36.591Z,51.40
2023-05-26T20:35:04.987Z,51.80
2023-05-26T20:37:32.422Z,51.90
2023-05-26T20:40:00.694Z,52.70
2023-05-26T20:42:31.603Z,52.70
2023-05-26T20:44:59.300Z,53.00
2023-05-26T20:47:26.586Z,53.90
2023-05-26T20:49:54.080Z,54.30
2023-05-26T20:52:21.725Z,54.00
2023-05-26T20:54:48.991Z,54.30
2023-05-26T20:57:16.521Z,54.20
2023-05-26T20:59:43.920Z,54.30
2023-05-26T21:02:12.442Z,54.10
2023-05-26T21:04:39.768Z,53.70
2023-05-26T21:07:07.096Z,53.80
2023-05-26T21:09:34.503Z,54.10
2023-05-26T21:12:02.964Z,54.80
2023-05-26T21:14:30.443Z,56.00
2023-05-26T21:16:57.894Z,54.50
2023-05-26T21:19:25.421Z,55.30
2023-05-26T21:21:52.687Z,55.30
2023-05-26T21:24:20.090Z,55.10
2023-05-26T21:26:47.333Z,54.40
2023-05-26T21:29:14.779Z,55.20
2023-05-26T21:31:42.068Z,55.20
2023-05-26T21:34:09.348Z,55.30
2023-05-26T21:36:37.739Z,55.30
2023-05-26T21:39:05.260Z,55.20
2023-05-26T21:41:32.895Z,55.20
2023-05-26T21:44:00.128Z,55.20
2023-05-26T21:46:27.364Z,55.30
2023-05-26T21:48:54.717Z,55.10
2023-05-26T21:51:24.650Z,55.30
2023-05-26T21:53:51.938Z,55.60
2023-05-26T21:56:19.281Z,55.40
2023-05-26T21:58:47.107Z,55.30
2023-05-26T22:01:14.527Z,55.20
2023-05-26T22:03:42.204Z,55.60
2023-05-26T22:06:09.595Z,56.10
2023-05-26T22:08:36.858Z,56.20
2023-05-26T22:11:04.126Z,56.60
2023-05-26T22:13:31.456Z,56.90
2023-05-26T22:15:59.158Z,56.90
2023-05-26T22:18:26.586Z,56.80
2023-05-26T22:20:53.943Z,56.80
2023-05-26T22:23:21.219Z,57.00
2023-05-26T22:25:48.481Z,57.10
2023-05-26T22:28:15.862Z,57.00
2023-05-26T22:30:45.540Z,57.10
2023-05-26T22:33:12.848Z,57.10
2023-05-26T22:35:40.117Z,57.20
2023-05-26T22:38:07.396Z,57.50
2023-05-26T22:40:34.680Z,57.60
2023-05-26T22:43:01.887Z,58.00
2023-05-26T22:45:29.154Z,58.40
2023-05-26T22:47:57.091Z,58.40
2023-05-26T22:50:24.341Z,58.30
2023-05-26T22:52:51.656Z,58.40
2023-05-26T22:55:21.475Z,58.70
2023-05-26T22:57:55.613Z,58.80
2023-05-26T23:00:22.890Z,59.00
2023-05-26T23:02:50.261Z,59.10
2023-05-26T23:05:17.566Z,59.90
2023-05-26T23:07:44.825Z,60.00
2023-05-26T23:10:12.436Z,59.90
2023-05-26T23:12:39.726Z,59.90
2023-05-26T23:15:07.546Z,60.00
2023-05-26T23:17:34.899Z,60.40
2023-05-26T23:20:02.524Z,60.50
2023-05-26T23:22:29.951Z,60.40
2023-05-26T23:24:57.209Z,60.30
2023-05-26T23:27:24.530Z,60.70
2023-05-26T23:29:51.905Z,60.50
2023-05-26T23:32:19.552Z,60.60
2023-05-26T23:34:46.910Z,60.90
2023-05-26T23:37:17.155Z,60.80
2023-05-26T23:39:44.556Z,61.10
2023-05-26T23:42:11.877Z,61.10
2023-05-26T23:44:39.146Z,61.40
2023-05-26T23:47:07.468Z,61.70
2023-05-26T23:49:34.763Z,61.60
2023-05-26T23:52:02.050Z,61.50
2023-05-26T23:54:29.584Z,61.50
2023-05-26T23:56:56.971Z,61.70
2023-05-26T23:59:24.357Z,61.70
